createdAt,value
2023-04-03T00:00:41.030Z,7.50
2023-04-03T00:03:07.929Z,7.30
2023-04-03T00:05:34.934Z,7.30
2023-04-03T00:08:02.989Z,7.40
2023-04-03T00:10:30.292Z,7.50
2023-04-03T00:12:57.323Z,7.60
2023-04-03T00:15:24.274Z,7.50
2023-04-03T00:17:51.262Z,7.50
2023-04-03T00:20:18.230Z,7.50
2023-04-03T00:22:45.163Z,7.40
2023-04-03T00:25:12.149Z,7.40
2023-04-03T00:27:40.282Z,7.30
2023-04-03T00:30:09.637Z,7.30
2023-04-03T00:32:36.577Z,7.20
2023-04-03T00:35:04.164Z,7.20
2023-04-03T00:37:31.736Z,7.20
2023-04-03T00:39:59.006Z,7.30
2023-04-03T00:42:26.226Z,7.30
2023-04-03T00:44:59.116Z,7.20
2023-04-03T00:47:26.414Z,7.30
2023-04-03T00:49:54.404Z,7.30
2023-04-03T00:52:26.368Z,7.30
2023-04-03T00:54:57.898Z,7.30
2023-04-03T00:57:25.487Z,7.40
2023-04-03T00:59:58.351Z,7.50
2023-04-03T01:02:26.977Z,7.50
2023-04-03T01:04:54.033Z,7.40
2023-04-03T01:07:25.329Z,7.40
2023-04-03T01:09:57.419Z,7.40
2023-04-03T01:12:36.950Z,7.30
2023-04-03T01:15:25.557Z,7.40
2023-04-03T01:17:59.568Z,7.40
2023-04-03T01:20:33.043Z,7.30
2023-04-03T01:23:17.473Z,7.30
2023-04-03T01:25:48.954Z,7.30
2023-04-03T01:28:20.531Z,7.20
2023-04-03T01:31:16.717Z,7.00
2023-04-03T01:33:45.980Z,6.60
2023-04-03T01:36:24.308Z,7.00
2023-04-03T01:38:51.239Z,7.10
2023-04-03T01:41:18.612Z,6.90
2023-04-03T01:43:46.868Z,6.90
2023-04-03T01:46:14.085Z,6.90
2023-04-03T01:48:41.601Z,6.80
2023-04-03T01:51:08.788Z,6.90
2023-04-03T01:53:36.089Z,6.80
2023-04-03T01:56:05.506Z,6.80
2023-04-03T01:58:33.235Z,6.70
2023-04-03T02:01:00.277Z,6.80
2023-04-03T02:03:27.326Z,6.90
2023-04-03T02:05:54.271Z,6.90
2023-04-03T02:08:21.708Z,6.90
2023-04-03T02:10:49.903Z,6.90
2023-04-03T02:13:18.223Z,6.90
2023-04-03T02:15:46.389Z,6.80
2023-04-03T02:18:16.162Z,6.80
2023-04-03T02:20:43.266Z,6.70
2023-04-03T02:23:10.684Z,6.70
2023-04-03T02:25:38.933Z,6.70
2023-04-03T02:28:06.480Z,6.60
2023-04-03T02:30:33.337Z,6.70
2023-04-03T02:33:00.381Z,6.70
2023-04-03T02:35:27.504Z,6.80
2023-04-03T02:37:56.755Z,6.70
2023-04-03T02:40:23.974Z,6.80
2023-04-03T02:42:51.488Z,6.80
2023-04-03T02:45:19.677Z,6.70
2023-04-03T02:47:46.756Z,6.70
2023-04-03T02:50:14.009Z,6.70
2023-04-03T02:52:40.892Z,6.80
2023-04-03T02:55:08.374Z,6.70
2023-04-03T02:57:36.404Z,6.60
2023-04-03T03:00:04.198Z,6.60
2023-04-03T03:02:31.136Z,6.70
2023-04-03T03:04:58.095Z,6.70
2023-04-03T03:07:25.573Z,6.70
2023-04-03T03:09:52.613Z,6.70
2023-04-03T03:12:22.811Z,6.80
2023-04-03T03:14:50.627Z,6.70
2023-04-03T03:17:18.296Z,6.80
2023-04-03T03:19:46.690Z,6.80
2023-04-03T03:22:13.657Z,6.80
2023-04-03T03:24:40.622Z,6.80
2023-04-03T03:27:07.653Z,6.80
2023-04-03T03:29:34.501Z,6.70
2023-04-03T03:32:02.503Z,6.80
2023-04-03T03:34:29.476Z,6.80
2023-04-03T03:36:56.651Z,6.80
2023-04-03T03:39:23.636Z,6.80
2023-04-03T03:41:50.870Z,6.80
2023-04-03T03:44:17.918Z,6.80
2023-04-03T03:46:44.876Z,6.70
2023-04-03T03:49:12.461Z,6.70
2023-04-03T03:51:40.747Z,6.80
2023-04-03T03:54:08.846Z,6.90
2023-04-03T03:56:36.392Z,6.80
2023-04-03T03:59:03.537Z,6.70
2023-04-03T04:01:32.369Z,6.80
2023-04-03T04:03:59.536Z,6.80
2023-04-03T04:06:31.072Z,6.90
2023-04-03T04:09:02.436Z,6.70
2023-04-03T04:11:30.599Z,6.60
2023-04-03T04:13:58.015Z,6.50
2023-04-03T04:16:27.684Z,6.50
2023-04-03T04:18:56.597Z,6.40
2023-04-03T04:21:24.343Z,6.40
2023-04-03T04:23:53.359Z,6.40
2023-04-03T04:26:22.137Z,6.40
2023-04-03T04:28:49.081Z,6.40
2023-04-03T04:31:18.904Z,6.30
2023-04-03T04:33:46.548Z,6.30
2023-04-03T04:36:15.944Z,6.40
2023-04-03T04:38:45.526Z,6.40
2023-04-03T04:41:12.860Z,6.40
2023-04-03T04:43:39.811Z,6.40
2023-04-03T04:46:09.830Z,6.40
2023-04-03T04:48:42.188Z,6.30
2023-04-03T04:51:09.976Z,6.30
2023-04-03T04:53:38.925Z,6.40
2023-04-03T04:56:07.059Z,6.10
2023-04-03T04:58:35.459Z,6.10
2023-04-03T05:01:05.447Z,6.10
2023-04-03T05:03:34.020Z,6.20
2023-04-03T05:06:01.078Z,6.30
2023-04-03T05:08:30.665Z,6.20
2023-04-03T05:10:58.271Z,6.20
2023-04-03T05:13:26.858Z,6.30
2023-04-03T05:15:54.785Z,6.30
2023-04-03T05:18:21.710Z,6.40
2023-04-03T05:20:51.606Z,6.30
2023-04-03T05:23:19.756Z,6.30
2023-04-03T05:25:49.741Z,6.30
2023-04-03T05:28:17.431Z,6.20
2023-04-03T05:30:44.798Z,6.20
2023-04-03T05:33:12.695Z,6.20
2023-04-03T05:35:50.478Z,6.20
2023-04-03T05:38:23.603Z,6.20
2023-04-03T05:40:51.129Z,6.20
2023-04-03T05:43:18.581Z,6.30
2023-04-03T05:45:46.964Z,6.30
2023-04-03T05:48:14.997Z,6.30
2023-04-03T05:50:43.393Z,6.40
2023-04-03T05:53:24.538Z,6.50
2023-04-03T05:55:51.538Z,6.50
2023-04-03T05:58:19.383Z,6.40
2023-04-03T06:00:48.041Z,6.50
2023-04-03T06:03:15.060Z,6.50
2023-04-03T06:05:42.788Z,6.40
2023-04-03T06:08:11.531Z,6.40
2023-04-03T06:10:38.640Z,6.50
2023-04-03T06:13:07.072Z,6.50
2023-04-03T06:15:34.715Z,6.50
2023-04-03T06:18:02.076Z,6.60
2023-04-03T06:20:29.160Z,6.60
2023-04-03T06:22:56.122Z,6.70
2023-04-03T06:25:23.046Z,6.90
2023-04-03T06:27:49.918Z,7.10
2023-04-03T06:30:16.968Z,7.30
2023-04-03T06:32:44.048Z,7.30
2023-04-03T06:35:11.678Z,7.30
2023-04-03T06:37:38.649Z,7.40
2023-04-03T06:40:06.468Z,7.40
2023-04-03T06:42:33.547Z,7.40
2023-04-03T06:45:12.338Z,7.50
2023-04-03T06:47:39.232Z,7.50
2023-04-03T06:50:07.624Z,7.40
2023-04-03T06:52:34.435Z,7.20
2023-04-03T06:55:01.437Z,7.00
2023-04-03T06:57:28.302Z,7.00
2023-04-03T06:59:55.136Z,6.80
2023-04-03T07:02:22.840Z,6.80
2023-04-03T07:07:18.426Z,6.80
2023-04-03T07:09:45.807Z,6.70
2023-04-03T07:12:12.772Z,6.60
2023-04-03T07:14:39.602Z,6.50
2023-04-03T07:17:06.558Z,6.40
2023-04-03T07:19:33.364Z,6.40
2023-04-03T07:22:00.169Z,6.70
2023-04-03T07:29:22.529Z,7.40
2023-04-03T07:31:50.295Z,7.40
2023-04-03T07:34:17.234Z,7.50
2023-04-03T07:36:44.080Z,7.70
2023-04-03T07:41:39.285Z,8.00
2023-04-03T07:44:06.846Z,8.20
2023-04-03T07:46:33.935Z,8.00
2023-04-03T07:49:01.088Z,7.80
2023-04-03T07:51:29.210Z,7.70
2023-04-03T07:56:23.839Z,7.60
2023-04-03T07:58:51.056Z,7.40
2023-04-03T08:01:17.973Z,7.40
2023-04-03T08:03:44.994Z,7.80
2023-04-03T08:06:15.978Z,8.10
2023-04-03T08:08:43.449Z,8.00
2023-04-03T08:11:11.814Z,8.20
2023-04-03T08:13:39.132Z,8.30
2023-04-03T08:16:13.498Z,8.20
2023-04-03T08:18:40.439Z,8.40
2023-04-03T08:21:09.165Z,8.60
2023-04-03T08:23:36.258Z,8.90
2023-04-03T08:26:14.546Z,8.80
2023-04-03T08:28:42.306Z,8.90
2023-04-03T08:31:14.689Z,9.00
2023-04-03T08:33:41.659Z,9.00
2023-04-03T08:36:19.038Z,8.90
2023-04-03T08:38:46.072Z,9.00
2023-04-03T08:41:35.257Z,8.20
2023-04-03T08:44:19.966Z,8.00
2023-04-03T08:47:12.608Z,8.00
2023-04-03T08:49:48.746Z,7.70
2023-04-03T08:52:26.670Z,8.00
2023-04-03T08:54:59.247Z,8.20
2023-04-03T08:57:36.351Z,8.50
2023-04-03T09:00:23.504Z,8.60
2023-04-03T09:02:53.028Z,8.30
2023-04-03T09:05:25.226Z,8.00
2023-04-03T09:08:01.761Z,8.00
2023-04-03T09:10:33.264Z,8.20
2023-04-03T09:13:14.493Z,8.20
2023-04-03T09:15:41.970Z,7.70
2023-04-03T09:18:20.640Z,8.10
2023-04-03T09:21:06.016Z,8.00
2023-04-03T09:23:53.186Z,8.10
2023-04-03T09:26:30.289Z,7.60
2023-04-03T09:29:01.469Z,7.60
2023-04-03T09:31:41.116Z,7.90
2023-04-03T09:34:23.540Z,8.90
2023-04-03T09:36:53.133Z,8.80
2023-04-03T09:39:24.181Z,8.80
2023-04-03T09:42:01.558Z,8.50
2023-04-03T09:44:35.057Z,8.50
2023-04-03T09:47:25.555Z,8.50
2023-04-03T09:50:15.591Z,8.60
2023-04-03T09:52:44.976Z,8.60
2023-04-03T09:55:17.820Z,8.90
2023-04-03T09:57:46.946Z,9.10
2023-04-03T10:00:41.298Z,8.10
2023-04-03T10:03:36.550Z,8.10
2023-04-03T10:06:05.658Z,7.90
2023-04-03T10:08:34.895Z,8.10
2023-04-03T10:11:11.432Z,7.90
2023-04-03T10:13:51.451Z,7.80
2023-04-03T10:16:19.683Z,7.50
2023-04-03T10:18:58.171Z,7.30
2023-04-03T10:21:43.860Z,7.50
2023-04-03T10:24:31.207Z,7.40
2023-04-03T10:27:17.187Z,7.50
2023-04-03T10:30:00.994Z,7.60
2023-04-03T10:32:46.564Z,7.60
2023-04-03T10:35:58.966Z,8.00
2023-04-03T10:39:13.417Z,8.50
2023-04-03T10:42:16.021Z,8.80
2023-04-03T10:45:10.377Z,8.90
2023-04-03T10:47:55.850Z,9.20
2023-04-03T10:50:22.774Z,9.20
2023-04-03T10:53:15.677Z,8.60
2023-04-03T10:55:54.408Z,8.60
2023-04-03T10:58:33.459Z,8.90
2023-04-03T11:01:17.408Z,8.70
2023-04-03T11:03:48.540Z,9.00
2023-04-03T11:06:18.440Z,8.80
2023-04-03T11:08:56.140Z,8.50
2023-04-03T11:11:28.223Z,8.20
2023-04-03T11:13:57.910Z,8.40
2023-04-03T11:16:29.589Z,8.80
2023-04-03T11:19:22.701Z,8.90
2023-04-03T11:21:59.128Z,8.60
2023-04-03T11:24:29.585Z,8.70
2023-04-03T11:27:00.482Z,8.70
2023-04-03T11:29:40.594Z,8.70
2023-04-03T11:32:22.589Z,8.70
2023-04-03T11:34:52.477Z,8.80
2023-04-03T11:37:29.735Z,9.00
2023-04-03T11:40:00.911Z,8.70
2023-04-03T11:42:37.301Z,8.70
2023-04-03T11:45:27.671Z,8.90
2023-04-03T11:47:59.651Z,9.00
2023-04-03T11:50:42.866Z,9.00
2023-04-03T11:53:13.008Z,9.10
2023-04-03T11:55:45.870Z,9.30
2023-04-03T11:58:14.280Z,8.80
2023-04-03T12:00:56.848Z,8.60
2023-04-03T12:03:26.777Z,8.30
2023-04-03T12:05:53.671Z,8.20
2023-04-03T12:08:30.581Z,8.60
2023-04-03T12:11:23.320Z,9.70
2023-04-03T12:13:50.414Z,10.40
2023-04-03T12:16:28.143Z,10.70
2023-04-03T12:19:04.661Z,10.50
2023-04-03T12:21:37.638Z,10.10
2023-04-03T12:24:13.382Z,9.30
2023-04-03T12:26:48.869Z,9.10
2023-04-03T12:29:36.390Z,9.10
2023-04-03T12:32:28.041Z,9.30
2023-04-03T12:35:14.022Z,9.20
2023-04-03T12:38:31.850Z,9.00
2023-04-03T12:41:11.318Z,9.00
2023-04-03T12:43:47.088Z,9.20
2023-04-03T12:46:23.968Z,9.20
2023-04-03T12:48:57.191Z,8.90
2023-04-03T12:51:39.077Z,8.70
2023-04-03T12:54:17.411Z,8.90
2023-04-03T12:56:44.301Z,9.10
2023-04-03T12:59:29.174Z,9.20
2023-04-03T13:01:58.318Z,9.20
2023-04-03T13:04:25.897Z,9.10
2023-04-03T13:06:53.333Z,9.70
2023-04-03T13:09:24.488Z,9.10
2023-04-03T13:11:57.910Z,9.10
2023-04-03T13:14:29.406Z,9.20
2023-04-03T13:17:04.132Z,9.00
2023-04-03T13:19:31.630Z,8.90
2023-04-03T13:22:21.086Z,8.80
2023-04-03T13:24:49.546Z,9.10
2023-04-03T13:27:16.708Z,8.90
2023-04-03T13:29:44.054Z,8.50
2023-04-03T13:32:22.449Z,8.30
2023-04-03T13:34:49.548Z,8.30
2023-04-03T13:37:26.939Z,8.40
2023-04-03T13:40:09.002Z,8.60
2023-04-03T13:42:42.433Z,8.50
2023-04-03T13:45:12.252Z,8.30
2023-04-03T13:47:45.231Z,8.40
2023-04-03T13:50:17.335Z,8.40
2023-04-03T13:52:56.555Z,8.70
2023-04-03T13:55:32.907Z,8.90
2023-04-03T13:58:08.630Z,8.50
2023-04-03T14:00:38.677Z,8.40
2023-04-03T14:03:19.689Z,8.60
2023-04-03T14:05:46.782Z,8.80
2023-04-03T14:08:13.710Z,8.90
2023-04-03T14:10:41.106Z,8.90
2023-04-03T14:13:10.043Z,9.00
2023-04-03T14:15:37.076Z,9.00
2023-04-03T14:18:06.517Z,9.00
2023-04-03T14:20:34.150Z,8.80
2023-04-03T14:23:01.436Z,8.90
2023-04-03T14:25:28.622Z,8.90
2023-04-03T14:27:55.996Z,9.10
2023-04-03T14:30:32.558Z,9.20
2023-04-03T14:33:01.318Z,9.30
2023-04-03T14:35:29.328Z,8.80
2023-04-03T14:37:56.684Z,8.30
2023-04-03T14:40:27.002Z,8.20
2023-04-03T14:42:56.634Z,8.50
2023-04-03T14:45:24.837Z,8.30
2023-04-03T14:47:56.943Z,8.30
2023-04-03T14:50:26.337Z,8.40
2023-04-03T14:52:56.446Z,9.80
2023-04-03T14:55:25.573Z,8.70
2023-04-03T14:57:53.952Z,8.70
2023-04-03T15:00:22.602Z,8.60
2023-04-03T15:02:49.914Z,8.30
2023-04-03T15:05:17.828Z,8.40
2023-04-03T15:07:50.056Z,7.50
2023-04-03T15:10:21.518Z,8.70
2023-04-03T15:12:49.416Z,8.80
2023-04-03T15:15:18.032Z,8.60
2023-04-03T15:17:46.121Z,8.10
2023-04-03T15:20:16.830Z,8.00
2023-04-03T15:22:44.000Z,8.20
2023-04-03T15:25:11.176Z,8.30
2023-04-03T15:27:39.284Z,8.50
2023-04-03T15:30:08.813Z,8.50
2023-04-03T15:32:36.150Z,8.30
2023-04-03T15:35:03.307Z,8.30
2023-04-03T15:37:30.321Z,8.40
2023-04-03T15:39:57.148Z,8.50
2023-04-03T15:42:24.176Z,8.40
2023-04-03T15:44:51.002Z,8.20
2023-04-03T15:47:17.977Z,8.00
2023-04-03T15:49:44.967Z,8.00
2023-04-03T15:52:11.885Z,8.00
2023-04-03T15:54:38.753Z,7.70
2023-04-03T15:57:05.843Z,7.70
2023-04-03T15:59:33.046Z,7.70
2023-04-03T16:02:02.623Z,7.60
2023-04-03T16:04:30.012Z,7.50
2023-04-03T16:06:57.065Z,7.60
2023-04-03T16:09:23.996Z,7.60
2023-04-03T16:11:51.139Z,7.50
2023-04-03T16:14:17.936Z,7.50
2023-04-03T16:16:45.043Z,7.60
2023-04-03T16:19:12.067Z,7.80
2023-04-03T16:21:39.049Z,7.80
2023-04-03T16:24:06.519Z,7.90
2023-04-03T16:26:33.630Z,8.10
2023-04-03T16:29:00.595Z,8.20
2023-04-03T16:31:28.038Z,8.00
2023-04-03T16:33:57.349Z,7.80
2023-04-03T16:36:26.381Z,7.70
2023-04-03T16:38:53.493Z,7.50
2023-04-03T16:41:20.536Z,7.30
2023-04-03T16:43:47.453Z,7.20
2023-04-03T16:46:14.375Z,7.00
2023-04-03T16:48:41.390Z,7.00
2023-04-03T16:51:08.301Z,6.90
2023-04-03T16:53:35.307Z,7.00
2023-04-03T16:56:02.238Z,7.10
2023-04-03T16:58:29.250Z,7.20
2023-04-03T17:00:56.363Z,7.30
2023-04-03T17:03:26.636Z,7.40
2023-04-03T17:05:53.682Z,7.60
2023-04-03T17:08:20.591Z,7.50
2023-04-03T17:10:49.728Z,7.30
2023-04-03T17:13:17.136Z,7.30
2023-04-03T17:15:43.890Z,7.50
2023-04-03T17:20:39.219Z,7.40
2023-04-03T17:23:06.569Z,7.40
2023-04-03T17:25:33.440Z,7.30
2023-04-03T17:30:27.735Z,7.50
2023-04-03T17:32:54.570Z,7.60
2023-04-03T17:35:21.402Z,7.60
2023-04-03T17:37:50.345Z,7.70
2023-04-03T17:40:18.733Z,7.70
2023-04-03T17:42:45.885Z,7.70
2023-04-03T17:45:12.953Z,7.70
2023-04-03T17:47:40.062Z,7.70
2023-04-03T17:50:07.593Z,7.70
2023-04-03T17:52:34.498Z,7.70
2023-04-03T17:55:01.369Z,7.70
2023-04-03T17:57:28.206Z,7.80
2023-04-03T17:59:55.191Z,7.80
2023-04-03T18:02:22.112Z,7.80
2023-04-03T18:04:52.972Z,7.80
2023-04-03T18:07:20.465Z,7.80
2023-04-03T18:09:49.228Z,7.80
2023-04-03T18:14:45.109Z,7.60
2023-04-03T18:19:39.687Z,7.60
2023-04-03T18:22:12.213Z,7.60
2023-04-03T18:24:39.448Z,7.60
2023-04-03T18:27:29.732Z,6.10
2023-04-03T18:30:03.099Z,7.50
2023-04-03T18:32:30.036Z,7.30
2023-04-03T18:37:25.078Z,7.10
2023-04-03T18:39:51.941Z,7.10
2023-04-03T18:42:22.362Z,7.10
2023-04-03T18:44:54.701Z,7.10
2023-04-03T18:49:48.952Z,7.00
2023-04-03T18:52:15.985Z,7.00
2023-04-03T18:54:43.347Z,7.00
2023-04-03T18:57:10.233Z,7.00
2023-04-03T18:59:37.872Z,7.00
2023-04-03T19:02:06.359Z,7.00
2023-04-03T19:04:33.655Z,7.00
2023-04-03T19:09:30.956Z,6.90
2023-04-03T19:14:25.630Z,6.70
2023-04-03T19:16:52.537Z,6.70
2023-04-03T19:19:19.470Z,6.60
2023-04-03T19:21:46.395Z,6.40
2023-04-03T19:24:13.953Z,6.40
2023-04-03T19:26:41.982Z,6.40
2023-04-03T19:29:09.209Z,6.40
2023-04-03T19:31:37.324Z,6.30
2023-04-03T19:34:05.691Z,6.20
2023-04-03T19:36:33.488Z,6.20
2023-04-03T19:39:00.402Z,6.10
2023-04-03T19:41:29.632Z,6.00
2023-04-03T19:43:56.895Z,5.90
2023-04-03T19:46:25.963Z,5.80
2023-04-03T19:48:52.930Z,5.80
2023-04-03T19:51:20.020Z,5.80
2023-04-03T19:53:47.586Z,5.70
2023-04-03T19:56:16.616Z,5.60
2023-04-03T19:58:44.079Z,5.60
2023-04-03T20:01:11.362Z,5.60
2023-04-03T20:03:38.400Z,5.70
2023-04-03T20:06:05.501Z,5.70
2023-04-03T20:08:32.784Z,5.60
2023-04-03T20:10:59.644Z,5.50
2023-04-03T20:13:26.546Z,5.50
2023-04-03T20:15:53.692Z,5.50
2023-04-03T20:18:21.130Z,5.50
2023-04-03T20:20:56.197Z,5.50
2023-04-03T20:23:23.927Z,5.40
2023-04-03T20:26:02.005Z,5.30
2023-04-03T20:28:36.341Z,5.20
2023-04-03T20:31:03.814Z,5.20
2023-04-03T20:33:32.028Z,5.00
2023-04-03T20:35:59.071Z,5.10
2023-04-03T20:38:26.292Z,5.00
2023-04-03T20:40:53.342Z,5.00
2023-04-03T20:43:21.850Z,5.00
2023-04-03T20:45:49.536Z,5.00
2023-04-03T20:48:17.998Z,5.10
2023-04-03T20:50:45.905Z,5.10
2023-04-03T20:53:13.366Z,5.00
2023-04-03T20:55:41.193Z,5.10
2023-04-03T20:58:08.670Z,5.10
2023-04-03T21:00:37.814Z,5.10
2023-04-03T21:03:05.807Z,5.10
2023-04-03T21:05:34.718Z,5.10
2023-04-03T21:08:40.166Z,5.20
2023-04-03T21:11:44.927Z,5.20
2023-04-03T21:14:49.474Z,5.10
2023-04-03T21:17:16.542Z,5.10
2023-04-03T21:19:46.496Z,5.10
2023-04-03T21:22:14.684Z,5.00
2023-04-03T21:24:42.157Z,4.90
2023-04-03T21:27:08.998Z,4.90
2023-04-03T21:29:35.919Z,4.80
2023-04-03T21:32:02.959Z,3.80
2023-04-03T21:34:31.241Z,4.80
2023-04-03T21:37:03.513Z,4.80
2023-04-03T21:39:31.126Z,4.90
2023-04-03T21:41:57.992Z,4.90
2023-04-03T21:44:25.983Z,4.90
2023-04-03T21:46:55.912Z,4.90
2023-04-03T21:49:24.977Z,4.80
2023-04-03T21:51:52.532Z,4.70
2023-04-03T21:54:20.343Z,4.70
2023-04-03T21:56:48.365Z,4.70
2023-04-03T21:59:15.935Z,4.70
2023-04-03T22:01:43.244Z,4.70
2023-04-03T22:04:10.726Z,4.70
2023-04-03T22:06:38.144Z,4.50
2023-04-03T22:09:05.575Z,4.40
2023-04-03T22:11:32.935Z,4.50
2023-04-03T22:14:00.140Z,4.50
2023-04-03T22:16:27.415Z,4.50
2023-04-03T22:18:56.152Z,4.50
2023-04-03T22:21:23.021Z,4.50
2023-04-03T22:23:50.059Z,4.40
2023-04-03T22:26:16.980Z,4.40
2023-04-03T22:28:45.722Z,4.30
2023-04-03T22:31:14.099Z,4.30
2023-04-03T22:33:42.535Z,4.20
2023-04-03T22:36:11.177Z,4.10
2023-04-03T22:38:39.854Z,4.10
2023-04-03T22:41:08.197Z,4.10
2023-04-03T22:43:36.459Z,4.20
2023-04-03T22:46:05.615Z,4.10
2023-04-03T22:48:33.453Z,4.10
2023-04-03T22:51:01.109Z,4.10
2023-04-03T22:53:31.110Z,4.10
2023-04-03T22:55:59.145Z,4.10
2023-04-03T22:58:26.891Z,4.10
2023-04-03T23:00:55.137Z,4.00
2023-04-03T23:03:26.003Z,4.00
2023-04-03T23:05:53.389Z,3.90
2023-04-03T23:08:20.293Z,3.80
2023-04-03T23:10:47.618Z,3.80
2023-04-03T23:13:14.427Z,3.70
2023-04-03T23:15:41.270Z,3.80
2023-04-03T23:18:08.099Z,3.80
2023-04-03T23:20:34.948Z,3.70
2023-04-03T23:23:01.903Z,3.80
2023-04-03T23:25:28.831Z,3.80
2023-04-03T23:27:56.181Z,3.70
2023-04-03T23:30:23.119Z,3.60
2023-04-03T23:32:50.026Z,3.50
2023-04-03T23:35:16.972Z,3.60
2023-04-03T23:37:43.835Z,3.60
2023-04-03T23:40:11.213Z,3.50
2023-04-03T23:42:38.160Z,3.50
2023-04-03T23:45:05.436Z,3.50
2023-04-03T23:47:32.552Z,3.30
2023-04-03T23:49:59.402Z,3.20
2023-04-03T23:52:26.260Z,3.20
2023-04-03T23:54:53.180Z,3.20
2023-04-03T23:57:20.010Z,3.10
2023-04-03T23:59:46.921Z,3.10
